Terminal Aerodrome Forecast
Issued by NWS Indianapolis, IN

Home | Current Version | Previous Version | Text Only | Print | Product List | Glossary On
Versions: 1 2 3 4 5 6 7 8 9 10 11 12 13 14 15 16 17 18 19 20 21 22 23 24 25 26
000
FTUS43 KIND 210800 AAA
TAFIND
TAF AMD
KIND 210825Z 2108/2212 VRB03KT 6SM BR SCT028
      TEMPO 2109/2113 4SM BR
     FM211300 13003KT 5SM BR OVC030
     FM211600 13006KT 6SM BR SCT025 OVC050
     FM212100 13006KT P6SM BKN080=

USA.gov is the U.S. government's official web portal to all federal, state and local government web resources and services.